« 難破船 富山市岩瀬浜 2024/2/5 mon | トップページ | 北陸旅輪 七尾・敦賀 2024/2/4 sun »

2024/02/05

定点 富山空港 2024/2/5 mon

先月30日に帰ってきて、ちょはいしてた「つるぎ」さん。まだ実働には出てないようで、操訓に励んでいます。

RJNT 050100Z 17003KT 100V250 9999 FEW020 SCT060 BKN070 04/M02 Q1020

20240205_rjnt_00ja139t

JA139T↓ AW139 富山県警察

20240205_rjnt_01ja139t

JA139T↑ 飛行場周訓練を終わって、県内パトロールへ

20240205_rjnt_02ja21ap

能登半島地震支援の警察隊は、今日は悪天候でお休みの模様

20240205_rjnt_03toyama

第3回富山きときと空港フォトコンテスト入賞作品が掲示されています。

20240205_rjnt_04toyama

ラーメン屋さんが撤退されました。

20240205_rjnt_05toyama

やけくそなネーミング「なんもないちゃ屋」 なんか作ろう

20240205_rjnt_06toyama

TOY GALLERYは、ガラスの富山

20240205_rjnt_07toyama

皆、富山湾寿司食べに来てー

20240205_rjnt_08ja110u

JA110U H155 香川県警察「さぬき」

20240205_rjnt_09ja21ap

JA21AP B412EP 愛知県警察「あけぼの」

20240205_rjnt_10ja89an

20240205_rjnt_11ja89an

ANA315 RJTT-RJNT JA89AN B737-8AL

20240205_rjnt_12ja89an

RJNT 050200Z VRB02KT 9999 -RA FEW010 SCT020 BKN025 04/M00 Q1019

20240205_rjnt_13ja89an

20240205_rjnt_14ja139t

JA139T↓ 悪天候で切り上げてきました。

20240205_rjnt_15ja139t

20240205_rjnt_16ja89an

20240205_rjnt_17ja89an

ANA316 RJNT-RJTT JA89AN B737-8AL

RJNT 050313Z 12003KT 060V230 2000 -SNRA FEW005 SCT008 BKN010 01/M00 Q1017 RMK 1ST005 3ST008 5ST010 A3004

20240205_rjnt_18ja80an

20240205_rjnt_19ja80an

20240205_rjnt_20ja80an

ANA1182 RJCC-RJNT JA80AN B737-881

RJNT 050400Z VRB02KT 1500 -SNRA VV008 00/00 Q1014

20240205_rjnt_21ja80an

20240205_rjnt_22ja80an

ANA1181 RJNT-RJCC JA80AN B737-881

20240205_rjnt_23ja80an

雨が雪に変わって、静かに降っています。

|

« 難破船 富山市岩瀬浜 2024/2/5 mon | トップページ | 北陸旅輪 七尾・敦賀 2024/2/4 sun »

富山空港」カテゴリの記事

コメント

コメントを書く



(ウェブ上には掲載しません)


コメントは記事投稿者が公開するまで表示されません。



« 難破船 富山市岩瀬浜 2024/2/5 mon | トップページ | 北陸旅輪 七尾・敦賀 2024/2/4 sun »